sensor_id;sensor_type;location;lat;lon;timestamp;pressure;altitude;pressure_sealevel;temperature;humidity
163;BME280;3946;48.958;8.284;2023-05-10T00:01:11;99952.81;;;13.36;100.00
163;BME280;3946;48.958;8.284;2023-05-10T00:03:56;99948.53;;;13.46;100.00
163;BME280;3946;48.958;8.284;2023-05-10T00:06:40;99948.56;;;13.35;100.00
163;BME280;3946;48.958;8.284;2023-05-10T00:09:25;99949.47;;;13.45;100.00
163;BME280;3946;48.958;8.284;2023-05-10T00:12:11;99949.91;;;13.50;100.00
163;BME280;3946;48.958;8.284;2023-05-10T00:14:57;99955.53;;;13.35;100.00
163;BME280;3946;48.958;8.284;2023-05-10T00:17:42;99954.72;;;13.34;100.00
163;BME280;3946;48.958;8.284;2023-05-10T00:20:27;99958.25;;;13.44;100.00
163;BME280;3946;48.958;8.284;2023-05-10T00:23:12;99948.19;;;13.40;100.00
163;BME280;3946;48.958;8.284;2023-05-10T00:25:57;99949.59;;;13.44;100.00
163;BME280;3946;48.958;8.284;2023-05-10T00:28:42;99958.00;;;13.47;100.00
163;BME280;3946;48.958;8.284;2023-05-10T00:31:28;99949.97;;;13.39;100.00
163;BME280;3946;48.958;8.284;2023-05-10T00:34:15;99948.31;;;13.38;100.00
163;BME280;3946;48.958;8.284;2023-05-10T00:37:00;99952.00;;;13.36;100.00
163;BME280;3946;48.958;8.284;2023-05-10T00:39:48;99953.75;;;13.46;100.00
163;BME280;3946;48.958;8.284;2023-05-10T00:42:33;99957.66;;;13.41;100.00
163;BME280;3946;48.958;8.284;2023-05-10T00:45:18;99956.47;;;13.45;100.00
163;BME280;3946;48.958;8.284;2023-05-10T00:48:05;99962.41;;;13.36;100.00
163;BME280;3946;48.958;8.284;2023-05-10T00:50:50;99970.09;;;13.37;100.00
163;BME280;3946;48.958;8.284;2023-05-10T00:53:35;99959.19;;;13.43;100.00
163;BME280;3946;48.958;8.284;2023-05-10T00:56:21;99960.59;;;13.47;100.00
163;BME280;3946;48.958;8.284;2023-05-10T00:59:08;99961.78;;;13.43;100.00
163;BME280;3946;48.958;8.284;2023-05-10T01:01:53;99956.81;;;13.40;100.00
163;BME280;3946;48.958;8.284;2023-05-10T01:04:40;99965.22;;;13.44;100.00
163;BME280;3946;48.958;8.284;2023-05-10T01:07:25;99960.38;;;13.39;100.00
163;BME280;3946;48.958;8.284;2023-05-10T01:10:10;99958.25;;;13.44;100.00
163;BME280;3946;48.958;8.284;2023-05-10T01:12:55;99964.06;;;13.37;100.00
163;BME280;3946;48.958;8.284;2023-05-10T01:15:40;99964.88;;;13.37;100.00
163;BME280;3946;48.958;8.284;2023-05-10T01:18:26;99959.69;;;13.37;100.00
163;BME280;3946;48.958;8.284;2023-05-10T01:21:17;99966.66;;;13.37;100.00
163;BME280;3946;48.958;8.284;2023-05-10T01:24:09;99958.94;;;13.46;100.00
163;BME280;3946;48.958;8.284;2023-05-10T01:30:08;99964.19;;;13.35;100.00
163;BME280;3946;48.958;8.284;2023-05-10T01:33:04;99958.34;;;13.43;100.00
163;BME280;3946;48.958;8.284;2023-05-10T01:35:55;99960.00;;;13.44;100.00
163;BME280;3946;48.958;8.284;2023-05-10T01:38:46;99960.59;;;13.47;100.00
163;BME280;3946;48.958;8.284;2023-05-10T01:41:36;99959.94;;;13.55;100.00
163;BME280;3946;48.958;8.284;2023-05-10T01:44:24;99961.09;;;13.41;100.00
163;BME280;3946;48.958;8.284;2023-05-10T01:47:12;99964.69;;;13.50;100.00
163;BME280;3946;48.958;8.284;2023-05-10T01:50:02;99961.97;;;13.51;100.00
163;BME280;3946;48.958;8.284;2023-05-10T01:52:50;99961.03;;;13.52;100.00
163;BME280;3946;48.958;8.284;2023-05-10T01:55:39;99968.13;;;13.50;100.00
163;BME280;3946;48.958;8.284;2023-05-10T01:58:27;99969.00;;;13.40;100.00
163;BME280;3946;48.958;8.284;2023-05-10T02:01:12;99976.69;;;13.41;100.00
163;BME280;3946;48.958;8.284;2023-05-10T02:03:58;99973.59;;;13.47;100.00
163;BME280;3946;48.958;8.284;2023-05-10T02:06:47;99971.81;;;13.48;100.00
163;BME280;3946;48.958;8.284;2023-05-10T02:09:33;99973.66;;;13.57;100.00
163;BME280;3946;48.958;8.284;2023-05-10T02:12:19;99969.34;;;13.46;100.00
163;BME280;3946;48.958;8.284;2023-05-10T02:15:05;99968.94;;;13.51;100.00
163;BME280;3946;48.958;8.284;2023-05-10T02:17:52;99973.22;;;13.52;100.00
163;BME280;3946;48.958;8.284;2023-05-10T02:20:39;99969.34;;;13.46;100.00
163;BME280;3946;48.958;8.284;2023-05-10T02:23:25;99972.50;;;13.50;100.00
163;BME280;3946;48.958;8.284;2023-05-10T02:26:11;99974.97;;;13.51;100.00
163;BME280;3946;48.958;8.284;2023-05-10T02:28:57;99972.97;;;13.55;100.00
163;BME280;3946;48.958;8.284;2023-05-10T02:31:43;99970.25;;;13.56;100.00
163;BME280;3946;48.958;8.284;2023-05-10T02:34:28;99971.41;;;13.63;100.00
163;BME280;3946;48.958;8.284;2023-05-10T02:37:14;99966.81;;;13.56;100.00
163;BME280;3946;48.958;8.284;2023-05-10T02:40:05;99962.31;;;13.58;100.00
163;BME280;3946;48.958;8.284;2023-05-10T02:42:52;99967.06;;;13.53;100.00
163;BME280;3946;48.958;8.284;2023-05-10T02:45:39;99969.03;;;13.60;100.00
163;BME280;3946;48.958;8.284;2023-05-10T02:48:27;99959.69;;;13.58;100.00
163;BME280;3946;48.958;8.284;2023-05-10T02:51:13;99960.19;;;13.52;100.00
163;BME280;3946;48.958;8.284;2023-05-10T02:54:01;99961.34;;;13.59;100.00
163;BME280;3946;48.958;8.284;2023-05-10T02:56:51;99959.88;;;13.45;100.00
163;BME280;3946;48.958;8.284;2023-05-10T02:59:37;99966.06;;;13.33;100.00
163;BME280;3946;48.958;8.284;2023-05-10T03:02:22;99965.88;;;13.25;100.00
163;BME280;3946;48.958;8.284;2023-05-10T03:05:08;99968.13;;;13.18;100.00
163;BME280;3946;48.958;8.284;2023-05-10T03:07:53;99969.31;;;13.14;100.00
163;BME280;3946;48.958;8.284;2023-05-10T03:10:41;99968.88;;;13.09;100.00
163;BME280;3946;48.958;8.284;2023-05-10T03:13:32;99977.84;;;13.16;100.00
163;BME280;3946;48.958;8.284;2023-05-10T03:16:20;99978.91;;;13.03;100.00
163;BME280;3946;48.958;8.284;2023-05-10T03:19:09;99985.19;;;13.00;100.00
163;BME280;3946;48.958;8.284;2023-05-10T03:21:57;99981.53;;;13.03;100.00
163;BME280;3946;48.958;8.284;2023-05-10T03:24:46;99981.41;;;13.04;100.00
163;BME280;3946;48.958;8.284;2023-05-10T03:27:34;99987.94;;;12.99;100.00
163;BME280;3946;48.958;8.284;2023-05-10T03:30:21;99990.88;;;12.94;100.00
163;BME280;3946;48.958;8.284;2023-05-10T03:33:07;100002.00;;;12.96;100.00
163;BME280;3946;48.958;8.284;2023-05-10T03:35:56;100004.97;;;12.91;100.00
163;BME280;3946;48.958;8.284;2023-05-10T03:38:41;99997.50;;;12.98;100.00
163;BME280;3946;48.958;8.284;2023-05-10T03:41:26;100009.09;;;12.94;100.00
163;BME280;3946;48.958;8.284;2023-05-10T03:44:12;100013.19;;;13.08;100.00
163;BME280;3946;48.958;8.284;2023-05-10T03:46:58;100013.13;;;12.98;100.00
163;BME280;3946;48.958;8.284;2023-05-10T03:49:43;100011.81;;;12.92;100.00
163;BME280;3946;48.958;8.284;2023-05-10T03:52:30;100024.81;;;12.92;100.00
163;BME280;3946;48.958;8.284;2023-05-10T03:55:15;100024.19;;;13.00;100.00
163;BME280;3946;48.958;8.284;2023-05-10T03:58:01;100023.38;;;13.00;100.00
163;BME280;3946;48.958;8.284;2023-05-10T04:00:47;100020.19;;;13.07;100.00
163;BME280;3946;48.958;8.284;2023-05-10T04:03:33;100016.50;;;13.10;100.00
163;BME280;3946;48.958;8.284;2023-05-10T04:06:20;100020.88;;;13.09;100.00
163;BME280;3946;48.958;8.284;2023-05-10T04:09:04;100016.84;;;13.16;100.00
163;BME280;3946;48.958;8.284;2023-05-10T04:11:49;100021.25;;;13.05;100.00
163;BME280;3946;48.958;8.284;2023-05-10T04:14:34;100021.47;;;13.13;100.00
163;BME280;3946;48.958;8.284;2023-05-10T04:17:19;100021.94;;;13.18;100.00
163;BME280;3946;48.958;8.284;2023-05-10T04:20:06;100029.50;;;13.21;100.00
163;BME280;3946;48.958;8.284;2023-05-10T04:22:51;100027.69;;;13.32;100.00
163;BME280;3946;48.958;8.284;2023-05-10T04:25:37;100027.22;;;13.39;100.00
163;BME280;3946;48.958;8.284;2023-05-10T04:28:22;100029.00;;;13.38;100.00
163;BME280;3946;48.958;8.284;2023-05-10T04:31:07;100025.69;;;13.36;100.00
163;BME280;3946;48.958;8.284;2023-05-10T04:33:52;100028.63;;;13.43;100.00
163;BME280;3946;48.958;8.284;2023-05-10T04:36:38;100035.50;;;13.44;100.00
163;BME280;3946;48.958;8.284;2023-05-10T04:39:23;100025.50;;;13.49;100.00
163;BME280;3946;48.958;8.284;2023-05-10T04:42:08;100027.56;;;13.45;100.00
163;BME280;3946;48.958;8.284;2023-05-10T04:44:53;100026.09;;;13.52;100.00
163;BME280;3946;48.958;8.284;2023-05-10T04:47:38;100024.31;;;13.53;100.00
163;BME280;3946;48.958;8.284;2023-05-10T04:50:23;100030.09;;;13.56;100.00
163;BME280;3946;48.958;8.284;2023-05-10T04:53:09;100031.41;;;13.62;100.00
163;BME280;3946;48.958;8.284;2023-05-10T04:55:54;100020.34;;;13.70;100.00
163;BME280;3946;48.958;8.284;2023-05-10T04:58:39;100023.47;;;13.63;100.00
163;BME280;3946;48.958;8.284;2023-05-10T05:01:24;100009.22;;;13.68;100.00
163;BME280;3946;48.958;8.284;2023-05-10T05:04:09;100019.75;;;13.66;100.00
163;BME280;3946;48.958;8.284;2023-05-10T05:06:53;100018.38;;;13.62;100.00
163;BME280;3946;48.958;8.284;2023-05-10T05:09:40;100014.00;;;13.62;100.00
163;BME280;3946;48.958;8.284;2023-05-10T05:12:25;100023.97;;;13.78;100.00
163;BME280;3946;48.958;8.284;2023-05-10T05:15:10;100013.22;;;13.72;100.00
163;BME280;3946;48.958;8.284;2023-05-10T05:17:55;100009.03;;;13.80;100.00
163;BME280;3946;48.958;8.284;2023-05-10T05:20:40;100011.81;;;13.68;100.00
163;BME280;3946;48.958;8.284;2023-05-10T05:23:25;100013.56;;;13.78;100.00
163;BME280;3946;48.958;8.284;2023-05-10T05:26:11;100013.75;;;13.86;100.00
163;BME280;3946;48.958;8.284;2023-05-10T05:28:56;100006.06;;;13.85;100.00
163;BME280;3946;48.958;8.284;2023-05-10T05:31:41;100006.13;;;13.94;100.00
163;BME280;3946;48.958;8.284;2023-05-10T05:34:26;100009.69;;;13.93;100.00
163;BME280;3946;48.958;8.284;2023-05-10T05:37:12;100003.66;;;13.93;100.00
163;BME280;3946;48.958;8.284;2023-05-10T05:39:57;100014.38;;;13.99;100.00
163;BME280;3946;48.958;8.284;2023-05-10T05:42:44;100017.38;;;13.95;100.00
163;BME280;3946;48.958;8.284;2023-05-10T05:45:29;100013.66;;;13.97;100.00
163;BME280;3946;48.958;8.284;2023-05-10T05:48:14;100014.13;;;14.02;100.00
163;BME280;3946;48.958;8.284;2023-05-10T05:51:00;100019.22;;;14.04;100.00
163;BME280;3946;48.958;8.284;2023-05-10T05:53:45;100033.94;;;14.15;100.00
163;BME280;3946;48.958;8.284;2023-05-10T05:56:30;100034.31;;;14.31;100.00
163;BME280;3946;48.958;8.284;2023-05-10T05:59:16;100040.25;;;14.12;100.00
163;BME280;3946;48.958;8.284;2023-05-10T06:02:01;100039.50;;;14.31;100.00
163;BME280;3946;48.958;8.284;2023-05-10T06:04:46;100049.00;;;14.53;100.00
163;BME280;3946;48.958;8.284;2023-05-10T06:07:31;100050.78;;;14.52;100.00
163;BME280;3946;48.958;8.284;2023-05-10T06:10:16;100040.94;;;14.65;100.00
163;BME280;3946;48.958;8.284;2023-05-10T06:13:01;100046.72;;;14.69;100.00
163;BME280;3946;48.958;8.284;2023-05-10T06:15:48;100056.03;;;14.62;100.00
163;BME280;3946;48.958;8.284;2023-05-10T06:18:33;100061.81;;;14.65;100.00
163;BME280;3946;48.958;8.284;2023-05-10T06:21:18;100055.53;;;14.78;100.00
163;BME280;3946;48.958;8.284;2023-05-10T06:24:03;100055.06;;;14.63;100.00
163;BME280;3946;48.958;8.284;2023-05-10T06:26:49;100062.97;;;14.52;100.00
163;BME280;3946;48.958;8.284;2023-05-10T06:29:34;100066.44;;;14.62;100.00
163;BME280;3946;48.958;8.284;2023-05-10T06:32:20;100067.16;;;14.64;100.00
163;BME280;3946;48.958;8.284;2023-05-10T06:35:06;100060.22;;;14.74;100.00
163;BME280;3946;48.958;8.284;2023-05-10T06:37:51;100064.84;;;14.70;100.00
163;BME280;3946;48.958;8.284;2023-05-10T06:40:36;100057.81;;;14.92;100.00
163;BME280;3946;48.958;8.284;2023-05-10T06:43:21;100067.88;;;15.06;100.00
163;BME280;3946;48.958;8.284;2023-05-10T06:46:06;100060.63;;;15.19;100.00
163;BME280;3946;48.958;8.284;2023-05-10T06:48:53;100070.53;;;15.25;100.00
163;BME280;3946;48.958;8.284;2023-05-10T06:51:38;100070.09;;;15.30;100.00
163;BME280;3946;48.958;8.284;2023-05-10T06:54:24;100075.75;;;15.45;100.00
163;BME280;3946;48.958;8.284;2023-05-10T06:57:09;100077.75;;;15.71;100.00
163;BME280;3946;48.958;8.284;2023-05-10T06:59:54;100076.09;;;15.70;100.00
163;BME280;3946;48.958;8.284;2023-05-10T07:02:40;100072.22;;;16.13;100.00
163;BME280;3946;48.958;8.284;2023-05-10T07:05:26;100069.91;;;15.91;100.00
163;BME280;3946;48.958;8.284;2023-05-10T07:08:13;100075.81;;;16.02;100.00
163;BME280;3946;48.958;8.284;2023-05-10T07:11:01;100073.06;;;15.65;100.00
163;BME280;3946;48.958;8.284;2023-05-10T07:13:47;100076.50;;;15.56;100.00
163;BME280;3946;48.958;8.284;2023-05-10T07:16:32;100079.13;;;15.56;100.00
163;BME280;3946;48.958;8.284;2023-05-10T07:19:16;100080.72;;;15.38;100.00
163;BME280;3946;48.958;8.284;2023-05-10T07:22:03;100076.91;;;15.61;100.00
163;BME280;3946;48.958;8.284;2023-05-10T07:24:48;100077.34;;;15.57;100.00
163;BME280;3946;48.958;8.284;2023-05-10T07:27:33;100079.66;;;15.60;100.00
163;BME280;3946;48.958;8.284;2023-05-10T07:30:18;100081.44;;;15.59;100.00
163;BME280;3946;48.958;8.284;2023-05-10T07:33:03;100089.28;;;15.69;100.00
163;BME280;3946;48.958;8.284;2023-05-10T07:35:49;100083.25;;;15.68;100.00
163;BME280;3946;48.958;8.284;2023-05-10T07:38:36;100087.50;;;15.79;100.00
163;BME280;3946;48.958;8.284;2023-05-10T07:41:21;100087.66;;;15.87;100.00
163;BME280;3946;48.958;8.284;2023-05-10T07:44:06;100094.66;;;16.06;100.00
163;BME280;3946;48.958;8.284;2023-05-10T07:46:50;100103.72;;;16.21;100.00
163;BME280;3946;48.958;8.284;2023-05-10T07:49:35;100095.13;;;16.48;100.00
163;BME280;3946;48.958;8.284;2023-05-10T07:52:20;100095.09;;;16.67;98.88
163;BME280;3946;48.958;8.284;2023-05-10T07:55:07;100099.03;;;16.15;98.82
163;BME280;3946;48.958;8.284;2023-05-10T07:57:53;100095.59;;;15.76;99.83
163;BME280;3946;48.958;8.284;2023-05-10T08:00:38;100103.16;;;15.60;100.00
163;BME280;3946;48.958;8.284;2023-05-10T08:03:25;100101.47;;;15.39;100.00
163;BME280;3946;48.958;8.284;2023-05-10T08:06:10;100101.81;;;15.65;100.00
163;BME280;3946;48.958;8.284;2023-05-10T08:08:55;100101.13;;;15.73;100.00
163;BME280;3946;48.958;8.284;2023-05-10T08:11:41;100105.38;;;16.13;99.25
163;BME280;3946;48.958;8.284;2023-05-10T08:14:27;100106.28;;;16.50;98.57
163;BME280;3946;48.958;8.284;2023-05-10T08:17:12;100108.47;;;16.64;94.77
163;BME280;3946;48.958;8.284;2023-05-10T08:19:57;100108.47;;;17.01;94.83
163;BME280;3946;48.958;8.284;2023-05-10T08:22:42;100113.31;;;16.96;92.52
163;BME280;3946;48.958;8.284;2023-05-10T08:25:27;100109.31;;;16.55;94.91
163;BME280;3946;48.958;8.284;2023-05-10T08:28:14;100104.97;;;16.73;93.67
163;BME280;3946;48.958;8.284;2023-05-10T08:30:59;100109.44;;;16.63;93.08
163;BME280;3946;48.958;8.284;2023-05-10T08:33:44;100106.53;;;16.66;92.52
163;BME280;3946;48.958;8.284;2023-05-10T08:36:29;100107.16;;;16.88;90.26
163;BME280;3946;48.958;8.284;2023-05-10T08:39:14;100103.66;;;17.24;90.12
163;BME280;3946;48.958;8.284;2023-05-10T08:41:59;100112.00;;;16.83;92.96
163;BME280;3946;48.958;8.284;2023-05-10T08:44:47;100110.41;;;16.99;90.49
163;BME280;3946;48.958;8.284;2023-05-10T08:47:32;100110.16;;;16.93;91.50
163;BME280;3946;48.958;8.284;2023-05-10T08:50:17;100116.03;;;17.32;91.35
163;BME280;3946;48.958;8.284;2023-05-10T08:53:06;100110.69;;;16.96;89.77
163;BME280;3946;48.958;8.284;2023-05-10T08:55:51;100108.81;;;17.16;88.48
163;BME280;3946;48.958;8.284;2023-05-10T08:58:37;100111.63;;;17.32;87.41
163;BME280;3946;48.958;8.284;2023-05-10T09:01:23;100113.63;;;17.21;87.25
163;BME280;3946;48.958;8.284;2023-05-10T09:04:09;100124.53;;;17.16;88.06
163;BME280;3946;48.958;8.284;2023-05-10T09:06:54;100122.91;;;17.33;86.34
163;BME280;3946;48.958;8.284;2023-05-10T09:09:39;100134.53;;;16.27;88.47
163;BME280;3946;48.958;8.284;2023-05-10T09:12:24;100132.25;;;16.61;86.95
163;BME280;3946;48.958;8.284;2023-05-10T09:15:09;100144.59;;;16.03;87.17
163;BME280;3946;48.958;8.284;2023-05-10T09:17:56;100140.47;;;16.00;88.25
163;BME280;3946;48.958;8.284;2023-05-10T09:20:43;100147.88;;;15.95;90.88
163;BME280;3946;48.958;8.284;2023-05-10T09:23:28;100144.59;;;15.74;90.75
163;BME280;3946;48.958;8.284;2023-05-10T09:26:15;100144.44;;;15.95;90.09
163;BME280;3946;48.958;8.284;2023-05-10T09:29:00;100143.63;;;15.94;88.64
163;BME280;3946;48.958;8.284;2023-05-10T09:31:47;100138.94;;;16.07;89.71
163;BME280;3946;48.958;8.284;2023-05-10T09:34:36;100142.25;;;16.00;89.09
163;BME280;3946;48.958;8.284;2023-05-10T09:37:29;100147.31;;;16.30;87.21
163;BME280;3946;48.958;8.284;2023-05-10T09:40:14;100142.06;;;16.69;86.95
163;BME280;3946;48.958;8.284;2023-05-10T09:43:00;100143.63;;;16.89;85.51
163;BME280;3946;48.958;8.284;2023-05-10T09:45:46;100141.81;;;17.27;83.23
163;BME280;3946;48.958;8.284;2023-05-10T09:48:32;100131.50;;;17.25;80.04
163;BME280;3946;48.958;8.284;2023-05-10T09:51:22;100122.31;;;17.39;80.00
163;BME280;3946;48.958;8.284;2023-05-10T09:54:11;100130.28;;;17.47;78.54
163;BME280;3946;48.958;8.284;2023-05-10T09:56:56;100136.03;;;17.78;79.22
163;BME280;3946;48.958;8.284;2023-05-10T09:59:42;100132.66;;;18.47;77.89
163;BME280;3946;48.958;8.284;2023-05-10T10:02:28;100111.44;;;18.14;76.09
163;BME280;3946;48.958;8.284;2023-05-10T10:05:13;100139.47;;;18.14;77.77
163;BME280;3946;48.958;8.284;2023-05-10T10:08:01;100129.94;;;18.31;77.28
163;BME280;3946;48.958;8.284;2023-05-10T10:10:47;100139.78;;;17.93;76.59
163;BME280;3946;48.958;8.284;2023-05-10T10:13:32;100132.78;;;18.19;76.29
163;BME280;3946;48.958;8.284;2023-05-10T10:16:17;100119.97;;;17.63;75.37
163;BME280;3946;48.958;8.284;2023-05-10T10:19:02;100148.47;;;17.48;76.07
163;BME280;3946;48.958;8.284;2023-05-10T10:21:47;100143.50;;;17.73;76.19
163;BME280;3946;48.958;8.284;2023-05-10T10:24:33;100137.41;;;18.43;76.53
163;BME280;3946;48.958;8.284;2023-05-10T10:27:20;100116.59;;;18.24;74.97
163;BME280;3946;48.958;8.284;2023-05-10T10:30:11;100126.06;;;17.99;74.96
163;BME280;3946;48.958;8.284;2023-05-10T10:33:06;100145.41;;;17.80;76.45
163;BME280;3946;48.958;8.284;2023-05-10T10:35:55;100140.34;;;18.23;76.58
163;BME280;3946;48.958;8.284;2023-05-10T10:38:55;100096.13;;;18.02;73.26
163;BME280;3946;48.958;8.284;2023-05-10T10:41:50;100135.00;;;17.61;74.83
163;BME280;3946;48.958;8.284;2023-05-10T10:44:36;100131.31;;;17.81;74.60
163;BME280;3946;48.958;8.284;2023-05-10T10:47:22;100138.13;;;17.74;75.42
163;BME280;3946;48.958;8.284;2023-05-10T10:50:13;100129.72;;;18.06;74.79
163;BME280;3946;48.958;8.284;2023-05-10T10:52:59;100135.59;;;18.00;74.59
163;BME280;3946;48.958;8.284;2023-05-10T10:56:02;100094.09;;;18.22;71.76
163;BME280;3946;48.958;8.284;2023-05-10T10:58:51;100109.03;;;18.03;72.29
163;BME280;3946;48.958;8.284;2023-05-10T11:01:37;100098.50;;;17.95;71.70
163;BME280;3946;48.958;8.284;2023-05-10T11:04:26;100127.25;;;17.42;73.39
163;BME280;3946;48.958;8.284;2023-05-10T11:07:17;100119.72;;;17.57;73.10
163;BME280;3946;48.958;8.284;2023-05-10T11:10:04;100162.25;;;17.51;76.09
163;BME280;3946;48.958;8.284;2023-05-10T11:12:53;100135.50;;;17.74;74.48
163;BME280;3946;48.958;8.284;2023-05-10T11:15:43;100102.19;;;17.85;72.59
163;BME280;3946;48.958;8.284;2023-05-10T11:18:33;100117.38;;;17.99;72.62
163;BME280;3946;48.958;8.284;2023-05-10T11:21:18;100068.63;;;17.88;70.11
163;BME280;3946;48.958;8.284;2023-05-10T11:24:10;100065.09;;;17.97;69.08
163;BME280;3946;48.958;8.284;2023-05-10T11:26:57;100071.34;;;18.48;69.25
163;BME280;3946;48.958;8.284;2023-05-10T11:29:42;100084.78;;;18.45;69.24
163;BME280;3946;48.958;8.284;2023-05-10T11:32:30;100013.78;;;18.46;65.83
163;BME280;3946;48.958;8.284;2023-05-10T11:35:16;100025.75;;;18.49;65.95
163;BME280;3946;48.958;8.284;2023-05-10T11:38:00;100036.28;;;18.57;65.79
163;BME280;3946;48.958;8.284;2023-05-10T11:40:45;100074.16;;;18.29;67.12
163;BME280;3946;48.958;8.284;2023-05-10T11:43:31;100058.81;;;18.34;66.03
163;BME280;3946;48.958;8.284;2023-05-10T11:46:17;100031.00;;;18.49;64.79
163;BME280;3946;48.958;8.284;2023-05-10T11:49:06;100066.03;;;18.14;66.37
163;BME280;3946;48.958;8.284;2023-05-10T11:51:51;100046.97;;;18.30;65.63
163;BME280;3946;48.958;8.284;2023-05-10T11:54:37;100053.75;;;18.40;65.22
163;BME280;3946;48.958;8.284;2023-05-10T11:57:26;99990.09;;;18.64;62.77
163;BME280;3946;48.958;8.284;2023-05-10T12:00:11;99972.81;;;18.96;61.29
163;BME280;3946;48.958;8.284;2023-05-10T12:02:56;99982.50;;;19.03;61.62
163;BME280;3946;48.958;8.284;2023-05-10T12:05:43;99999.78;;;19.14;61.76
163;BME280;3946;48.958;8.284;2023-05-10T12:08:29;100005.91;;;19.47;62.15
163;BME280;3946;48.958;8.284;2023-05-10T12:11:14;100012.44;;;19.27;62.43
163;BME280;3946;48.958;8.284;2023-05-10T12:14:03;99999.28;;;19.35;61.95
163;BME280;3946;48.958;8.284;2023-05-10T12:16:49;100030.53;;;19.46;62.64
163;BME280;3946;48.958;8.284;2023-05-10T12:19:37;99981.16;;;18.91;60.75
163;BME280;3946;48.958;8.284;2023-05-10T12:22:24;100035.00;;;19.03;62.64
163;BME280;3946;48.958;8.284;2023-05-10T12:25:09;99991.34;;;18.94;60.40
163;BME280;3946;48.958;8.284;2023-05-10T12:27:55;100033.75;;;18.65;61.97
163;BME280;3946;48.958;8.284;2023-05-10T12:30:40;99996.44;;;19.04;60.49
163;BME280;3946;48.958;8.284;2023-05-10T12:33:25;100037.13;;;19.00;61.82
163;BME280;3946;48.958;8.284;2023-05-10T12:36:11;100001.69;;;19.04;61.03
163;BME280;3946;48.958;8.284;2023-05-10T12:39:03;100006.66;;;19.15;60.82
163;BME280;3946;48.958;8.284;2023-05-10T12:41:48;100014.16;;;19.02;61.14
163;BME280;3946;48.958;8.284;2023-05-10T12:44:33;99989.22;;;19.06;60.45
163;BME280;3946;48.958;8.284;2023-05-10T12:47:18;99981.41;;;19.46;59.85
163;BME280;3946;48.958;8.284;2023-05-10T12:50:03;99937.19;;;19.82;57.58
163;BME280;3946;48.958;8.284;2023-05-10T12:52:48;99919.78;;;19.89;57.20
163;BME280;3946;48.958;8.284;2023-05-10T12:55:35;99909.47;;;19.07;56.42
163;BME280;3946;48.958;8.284;2023-05-10T12:58:20;99953.75;;;18.94;57.96
163;BME280;3946;48.958;8.284;2023-05-10T13:01:05;99936.03;;;18.87;57.24
163;BME280;3946;48.958;8.284;2023-05-10T13:03:50;99990.84;;;18.91;59.70
163;BME280;3946;48.958;8.284;2023-05-10T13:06:35;99979.88;;;19.03;59.27
163;BME280;3946;48.958;8.284;2023-05-10T13:09:20;99979.91;;;19.28;59.41
163;BME280;3946;48.958;8.284;2023-05-10T13:12:06;99990.13;;;19.87;59.67
163;BME280;3946;48.958;8.284;2023-05-10T13:14:51;99916.25;;;20.13;56.09
163;BME280;3946;48.958;8.284;2023-05-10T13:17:36;99933.13;;;19.80;57.28
163;BME280;3946;48.958;8.284;2023-05-10T13:20:22;99951.19;;;19.42;58.03
163;BME280;3946;48.958;8.284;2023-05-10T13:23:07;99956.44;;;19.42;58.01
163;BME280;3946;48.958;8.284;2023-05-10T13:25:52;99944.81;;;19.53;58.15
163;BME280;3946;48.958;8.284;2023-05-10T13:28:38;99996.50;;;19.36;60.10
163;BME280;3946;48.958;8.284;2023-05-10T13:31:24;99995.34;;;19.22;59.96
163;BME280;3946;48.958;8.284;2023-05-10T13:34:09;99967.44;;;19.38;58.85
163;BME280;3946;48.958;8.284;2023-05-10T13:36:54;99925.59;;;19.61;57.25
163;BME280;3946;48.958;8.284;2023-05-10T13:39:40;99953.81;;;19.42;58.01
163;BME280;3946;48.958;8.284;2023-05-10T13:42:24;99946.91;;;19.09;58.16
163;BME280;3946;48.958;8.284;2023-05-10T13:45:11;99981.34;;;19.06;59.46
163;BME280;3946;48.958;8.284;2023-05-10T13:47:57;99982.19;;;19.06;59.67
163;BME280;3946;48.958;8.284;2023-05-10T13:50:42;100035.84;;;18.62;61.83
163;BME280;3946;48.958;8.284;2023-05-10T13:53:27;99993.56;;;18.39;60.11
163;BME280;3946;48.958;8.284;2023-05-10T13:56:12;100026.84;;;18.38;61.63
163;BME280;3946;48.958;8.284;2023-05-10T13:58:57;100027.03;;;18.19;61.79
163;BME280;3946;48.958;8.284;2023-05-10T14:01:44;100025.44;;;18.18;62.14
163;BME280;3946;48.958;8.284;2023-05-10T14:04:29;100091.84;;;17.83;65.04
163;BME280;3946;48.958;8.284;2023-05-10T14:07:14;100056.25;;;17.98;63.81
163;BME280;3946;48.958;8.284;2023-05-10T14:09:58;100096.25;;;18.18;65.67
163;BME280;3946;48.958;8.284;2023-05-10T14:12:43;100056.22;;;18.42;64.33
163;BME280;3946;48.958;8.284;2023-05-10T14:15:28;100028.56;;;18.81;62.70
163;BME280;3946;48.958;8.284;2023-05-10T14:18:14;99996.53;;;19.52;61.24
163;BME280;3946;48.958;8.284;2023-05-10T14:21:00;99956.56;;;20.06;59.40
163;BME280;3946;48.958;8.284;2023-05-10T14:23:44;99936.00;;;20.56;58.27
163;BME280;3946;48.958;8.284;2023-05-10T14:26:30;99897.25;;;20.34;56.60
163;BME280;3946;48.958;8.284;2023-05-10T14:29:15;99912.22;;;20.42;56.94
163;BME280;3946;48.958;8.284;2023-05-10T14:32:00;99971.78;;;20.43;59.48
163;BME280;3946;48.958;8.284;2023-05-10T14:34:46;99966.72;;;20.72;59.41
163;BME280;3946;48.958;8.284;2023-05-10T14:37:31;99933.13;;;20.74;57.66
163;BME280;3946;48.958;8.284;2023-05-10T14:40:16;99923.06;;;20.78;56.97
163;BME280;3946;48.958;8.284;2023-05-10T14:43:01;99901.28;;;20.14;56.95
163;BME280;3946;48.958;8.284;2023-05-10T14:45:46;99974.19;;;19.89;59.49
163;BME280;3946;48.958;8.284;2023-05-10T14:48:32;99956.13;;;19.70;58.98
163;BME280;3946;48.958;8.284;2023-05-10T14:51:18;100014.13;;;19.60;61.45
163;BME280;3946;48.958;8.284;2023-05-10T14:54:05;99954.78;;;19.17;59.24
163;BME280;3946;48.958;8.284;2023-05-10T14:56:50;99999.34;;;18.76;60.88
163;BME280;3946;48.958;8.284;2023-05-10T14:59:35;100031.44;;;18.62;62.50
163;BME280;3946;48.958;8.284;2023-05-10T15:02:20;100050.31;;;18.66;62.83
163;BME280;3946;48.958;8.284;2023-05-10T15:05:05;100026.66;;;18.32;62.54